Share

Piedras Negras, Mexico

XE2OR (ICOAHUIL9) Elev 1066 ft | 28.42 °N, 100.77 °W | Change Station

Current weather conditions updated 0 second ago

Overcast
Overcast
63.7 °F
Feels Like 63.7 °F
N
1.9
Wind Variable Wind from ESE
Gusts 3.1 mph
Sunrise 7:13 AM
Sunset 8:09 PM
Moon Waning Gibbous

Today is forecast to be nearly the same temperature as yesterday.

Pressure 30.16 in
Visibility 7.0 miles
Clouds Overcast 600 ft
Dew Point 63 °F
Humidity 97%
Rainfall 0.00 in
Snow Depth Not available.
UV 0.0 out of 16
Pollen Not available.
Air Quality Not available.
Flu Activity Not available.
METAR KDLF 181358Z 14007KT 7SM OVC006 17/17 A3018 RMK AO2 CIG 005V008 SLP211 T01720170 $

More Conditions Fewer Conditions

Pressure 30.16 in
Visibility 7.0 miles
Clouds Overcast 600 ft
Dew Point 63 °F
Humidity 97%
Rainfall 0.00 in
Snow Depth Not available.
UV 0.0 out of 16
Pollen Not available.
Air Quality Not available.
Flu Activity Not available.
METAR KDLF 181358Z 14007KT 7SM OVC006 17/17 A3018 RMK AO2 CIG 005V008 SLP211 T01720170 $

More Conditions Fewer Conditions

10-Day Forecast

Almanac

Astronomy

Apr. 18, 2014 Rise Set
Actual Time 7:13 AM CDT 8:09 PM CDT
Civil Twilight 6:49 AM CDT 8:34 PM CDT
Nautical Twilight 6:20 AM CDT 9:02 PM CDT
Astronomical Twilight 5:50 AM CDT 9:32 PM CDT
Moon 11:46 PM CDT 9:47 AM CDT
Length of Visible Light 13h 45m
Length of Day
12h 56m
Tomorrow will be 1m 36s longer.
Waning Gibbous, 88% of the Moon is Illuminated
Today
Waning Gibbous
Apr 22
Last Quarter
Apr 29
New
May 6
First Quarter
May 14
Full

Yesterday's Extremes

Country Highs Country Lows

Community

  • What's for Lunch?
    What's for Lunch?
  • SUNRISE THROUGH THE TREES.
    SUNRISE THROUGH THE TREES.
  • Dog Wood Blossoms
    Dog Wood Blossoms
  • Morning Light
    Morning Light
  • New Day
    New Day

WunderPhotos

Upload Photos

1,702,373 photos uploaded!

Nearby

Snow Depth

Not available.

Coastal Water Temperatures

Place Temperature
No Stations Reporting

Earthquake Activity

City Distance Mag. Time & Date
No recent earthquake activity has been reported nearby.
Minimum magnitude displayed is 2.5.

Nearby Weather Stations

Station Location Temp. Dew Point Humidity Wind Precip. Elev Updated Type
MesoWest EGLPAS , Eagle Pass, TX 62 °F - - North  at  - 0.00 in / hr 769 ft 7:00 AM CDT MADIS
XE2OR, NAVA 63.7 °F 63 °F 97% ESE  at  1.9 mph 0.00 in / hr 1066 ft 9:16 AM CDT Rapid Fire

Show More Stations Show Fewer Stations

What do you think?

We're not finished. Please let us know what you like, what you don't like, and what you are still missing.